LTADLTAU

Guest
Details From LTAD - ETIMESGUT
To LTAU - ERKILET
Flight Number -
Tags generated
Created
Modified
Stats Distance 148 nm / 275 km
Max Altitude 13,600 ft / 4,145 m
Waypoints 3
Social Downloads 0
Likes 0
Share VATSIM

Download

Looking for another format? Having issues loading an existing format? Contact us
Advertisement - Login to hide

Notes

Basic altitude profile: - Ascent Rate: 1500ft/min - Ascent Speed: 180kts - Cruise Altitude: 25000ft - Cruise Speed: 290kts - Descent Rate: 1500ft/min - Descent Speed: 180kts

Route

LTAD YUCEL LTAU

ID Type Via Altitude Latitude Longitude Leg Dist Tot Dist Heading (true) Name
O LTAD APT - 0 ft / 0 m 39.95019˚ 32.68759˚ - 0 nm - ETIMESGUT
YUCEL FIX - 13,600 ft / 4,145 m 39.58000˚ 33.58584˚ 47 nm 47 nm 118° / 118° -
O LTAU APT - 0 ft / 0 m 38.77038˚ 35.49543˚ 101 nm 148 nm 118° / 119° ERKILET

Altitude Profile

Advertisement - Login to hide

LTAD

Details ICAO LTAD (ANK)
Name ETIMESGUT
Region Turkey
Timezone Europe/Istanbul (UTC+3.0)
Stats Elevation 2,653 ft / 809 m (AMSL)
Location 39.950193° 32.687595°
Runways 2
Magnetic Variation 5.700° E

METAR

LTAD 261319Z 24015KT 9999 -SHRA FEW030CB BKN035 22/13 Q1011 TEMPO 06015G25KT -TSRA RMK RWY29 23015KT

Decode

TAF

Not found

Departure Runways

ID Width Length Bearing (true) Bearing (mag) Surface Threshold Offset Overrun Length
11L 148 ft / 45 m 8,543 ft / 2,604 m 113.67° 107.97° Asphalt 493 ft / 150 m 0 ft / 0 m
11R 148 ft / 45 m 4,942 ft / 1,506 m 113.76° 108.06° Asphalt 0 ft / 0 m 0 ft / 0 m
29L 148 ft / 45 m 4,942 ft / 1,506 m 293.77° 288.07° Asphalt 0 ft / 0 m 0 ft / 0 m
29R 148 ft / 45 m 8,543 ft / 2,604 m 293.69° 287.99° Asphalt 0 ft / 0 m 493 ft / 150 m

LTAU

Details ICAO LTAU (ASR)
Name ERKILET
Region Turkey
Timezone Europe/Istanbul (UTC+3.0)
Stats Elevation 3,463 ft / 1,056 m (AMSL)
Location 38.770384° 35.495427°
Runways 1
Magnetic Variation 5.694° E

METAR

LTAU 261350Z 16012KT 9999 FEW030CB BKN035 24/03 Q1012 TEMPO TL1500 -TSRA

Decode

TAF

Not found

Destination Runways

ID Width Length Bearing (true) Bearing (mag) Surface Threshold Offset Overrun Length
07 145 ft / 44 m 9,822 ft / 2,994 m 76.29° 70.60° Concrete 0 ft / 0 m 500 ft / 152 m
25 145 ft / 44 m 9,822 ft / 2,994 m 256.31° 250.62° Concrete 0 ft / 0 m 500 ft / 152 m

Approach Navaids

Runway Type Ident Frequency Range Bearing (true) Bearing (mag) Slope Elevation
25 Localiser IKSR 110.30 MHz 18 nm / 33 km 256.40° 250.71° - 3,453 ft / 1,052 m (AMSL)
25 Glidescope IKSR 110.30 MHz 10 nm / 19 km 256.30° 250.61° 3.00° 3,463 ft / 1,056 m (AMSL)

Popular Alternatives